createdAt,value
2019-02-18T00:01:10.145Z,13.73
2019-02-18T00:03:39.278Z,13.90
2019-02-18T00:06:08.322Z,16.77
2019-02-18T00:08:37.371Z,14.30
2019-02-18T00:11:07.926Z,14.90
2019-02-18T00:13:37.186Z,12.63
2019-02-18T00:16:06.234Z,16.83
2019-02-18T00:18:35.203Z,15.53
2019-02-18T00:21:04.257Z,15.73
2019-02-18T00:23:33.294Z,13.67
2019-02-18T00:26:02.278Z,15.10
2019-02-18T00:28:31.230Z,15.93
2019-02-18T00:31:00.206Z,15.17
2019-02-18T00:33:29.241Z,15.23
2019-02-18T00:35:58.231Z,14.97
2019-02-18T00:38:27.212Z,14.80
2019-02-18T00:40:56.201Z,15.23
2019-02-18T00:43:25.208Z,16.70
2019-02-18T00:45:54.192Z,16.73
2019-02-18T00:48:23.151Z,14.53
2019-02-18T00:50:52.151Z,16.80
2019-02-18T00:53:21.190Z,15.30
2019-02-18T00:55:50.210Z,17.33
2019-02-18T00:58:19.230Z,13.07
2019-02-18T01:00:48.227Z,15.40
2019-02-18T01:03:17.318Z,18.43
2019-02-18T01:05:46.354Z,15.03
2019-02-18T01:08:15.391Z,15.03
2019-02-18T01:10:44.404Z,15.90
2019-02-18T01:13:13.421Z,17.90
2019-02-18T01:15:42.509Z,15.87
2019-02-18T01:18:11.550Z,15.47
2019-02-18T01:20:40.607Z,13.40
2019-02-18T01:23:09.579Z,16.07
2019-02-18T01:25:38.601Z,15.43
2019-02-18T01:28:07.608Z,14.97
2019-02-18T01:30:36.739Z,14.60
2019-02-18T01:33:05.715Z,15.23
2019-02-18T01:35:34.707Z,16.40
2019-02-18T01:38:03.744Z,16.63
2019-02-18T01:40:32.774Z,14.07
2019-02-18T01:43:01.779Z,14.33
2019-02-18T01:45:30.768Z,14.40
2019-02-18T01:47:59.821Z,15.33
2019-02-18T01:50:28.887Z,17.43
2019-02-18T01:52:57.892Z,15.90
2019-02-18T01:55:26.937Z,16.80
2019-02-18T01:57:56.006Z,15.10
2019-02-18T02:00:25.060Z,14.43
2019-02-18T02:02:54.069Z,16.23
2019-02-18T02:05:23.079Z,15.87
2019-02-18T02:07:56.224Z,15.27
2019-02-18T02:10:22.875Z,16.30
2019-02-18T02:12:51.920Z,13.63
2019-02-18T02:15:24.446Z,15.17
2019-02-18T02:17:53.480Z,17.00
2019-02-18T02:20:22.451Z,14.40
2019-02-18T02:22:51.521Z,16.87
2019-02-18T02:25:20.539Z,16.17
2019-02-18T02:27:49.513Z,16.67
2019-02-18T02:30:18.551Z,15.30
2019-02-18T02:32:47.598Z,16.20
2019-02-18T02:35:16.698Z,14.50
2019-02-18T02:37:45.735Z,16.83
2019-02-18T02:40:14.759Z,16.40
2019-02-18T02:42:43.772Z,16.83
2019-02-18T02:45:12.860Z,18.17
2019-02-18T02:47:41.923Z,15.03
2019-02-18T02:50:10.966Z,16.57
2019-02-18T02:52:40.095Z,16.03
2019-02-18T02:55:09.119Z,14.83
2019-02-18T02:57:38.177Z,18.57
2019-02-18T03:00:08.369Z,15.57
2019-02-18T03:02:37.514Z,16.93
2019-02-18T03:05:06.512Z,13.87
2019-02-18T03:07:35.518Z,16.93
2019-02-18T03:10:04.706Z,15.43
2019-02-18T03:12:33.689Z,16.13
2019-02-18T03:15:02.796Z,14.80
2019-02-18T03:17:31.826Z,15.07
2019-02-18T03:20:00.801Z,15.70
2019-02-18T03:22:29.772Z,14.87
2019-02-18T03:25:16.978Z,15.73
2019-02-18T03:27:45.958Z,14.37
2019-02-18T03:30:42.113Z,17.67
2019-02-18T03:33:12.504Z,16.63
2019-02-18T03:35:41.648Z,17.77
2019-02-18T03:38:10.719Z,16.43
2019-02-18T03:40:39.719Z,15.20
2019-02-18T03:43:08.729Z,15.73
2019-02-18T03:45:37.885Z,14.47
2019-02-18T03:48:06.939Z,15.37
2019-02-18T03:50:36.032Z,19.37
2019-02-18T03:53:05.060Z,16.30
2019-02-18T03:55:34.077Z,17.17
2019-02-18T03:58:03.227Z,17.07
2019-02-18T04:00:32.227Z,14.50
2019-02-18T04:03:01.220Z,16.23
2019-02-18T04:05:30.295Z,15.23
2019-02-18T04:07:59.343Z,13.43
2019-02-18T04:10:28.390Z,17.03
2019-02-18T04:13:01.828Z,16.93
2019-02-18T04:15:30.854Z,14.30
2019-02-18T04:17:59.821Z,16.63
2019-02-18T04:20:28.875Z,15.97
2019-02-18T04:22:57.894Z,17.63
2019-02-18T04:25:26.926Z,17.57
2019-02-18T04:27:55.880Z,15.33
2019-02-18T04:30:24.893Z,14.13
2019-02-18T04:32:53.939Z,16.73
2019-02-18T04:35:22.933Z,18.33
2019-02-18T04:37:51.958Z,16.47
2019-02-18T04:40:20.953Z,14.80
2019-02-18T04:42:50.002Z,17.57
2019-02-18T04:45:19.029Z,15.40
2019-02-18T04:47:48.043Z,16.27
2019-02-18T04:50:17.078Z,16.50
2019-02-18T04:52:46.077Z,15.00
2019-02-18T04:55:15.109Z,14.30
2019-02-18T04:57:44.166Z,18.07
2019-02-18T05:00:13.217Z,17.03
2019-02-18T05:02:42.347Z,14.67
2019-02-18T05:05:11.413Z,14.77
2019-02-18T05:07:40.485Z,13.83
2019-02-18T05:10:09.686Z,16.77
2019-02-18T05:12:38.667Z,14.80
2019-02-18T05:15:07.770Z,14.67
2019-02-18T05:17:36.756Z,15.40
2019-02-18T05:20:05.832Z,16.70
2019-02-18T05:22:34.816Z,17.37
2019-02-18T05:25:04.013Z,15.30
2019-02-18T05:27:33.749Z,16.17
2019-02-18T05:30:02.844Z,15.50
2019-02-18T05:32:31.846Z,14.23
2019-02-18T05:35:00.871Z,16.40
2019-02-18T05:37:29.939Z,16.37
2019-02-18T05:39:59.000Z,15.13
2019-02-18T05:42:28.016Z,16.17
2019-02-18T05:44:57.064Z,14.17
2019-02-18T05:47:26.113Z,14.33
2019-02-18T05:49:55.180Z,14.57
2019-02-18T05:52:24.195Z,15.03
2019-02-18T05:54:53.193Z,15.33
2019-02-18T05:57:22.866Z,17.00
2019-02-18T05:59:52.159Z,13.83
2019-02-18T06:02:22.341Z,16.47
2019-02-18T06:04:51.475Z,15.43
2019-02-18T06:07:20.615Z,15.97
2019-02-18T06:09:49.635Z,15.43
2019-02-18T06:12:18.664Z,15.83
2019-02-18T06:14:47.712Z,15.90
2019-02-18T06:17:16.783Z,15.47
2019-02-18T06:19:45.811Z,14.43
2019-02-18T06:22:14.746Z,13.97
2019-02-18T06:24:43.738Z,15.17
2019-02-18T06:27:12.749Z,13.50
2019-02-18T06:29:41.775Z,13.93
2019-02-18T06:32:10.776Z,20.07
2019-02-18T06:34:39.790Z,13.67
2019-02-18T06:37:08.845Z,14.97
2019-02-18T06:39:41.421Z,15.57
2019-02-18T06:42:08.534Z,13.03
2019-02-18T06:44:43.621Z,15.50
2019-02-18T06:47:15.909Z,14.17
2019-02-18T06:49:44.972Z,14.10
2019-02-18T06:52:14.017Z,14.33
2019-02-18T06:54:43.636Z,13.40
2019-02-18T06:57:37.505Z,13.10
2019-02-18T07:00:17.422Z,13.03
2019-02-18T07:03:03.246Z,14.73
2019-02-18T07:05:51.388Z,13.93
2019-02-18T07:08:36.168Z,13.30
2019-02-18T07:11:18.758Z,13.07
2019-02-18T07:13:47.710Z,12.00
2019-02-18T07:16:16.763Z,14.80
2019-02-18T07:18:45.809Z,12.90
2019-02-18T07:21:15.906Z,14.30
2019-02-18T07:23:44.970Z,16.63
2019-02-18T07:26:13.966Z,14.10
2019-02-18T07:28:43.062Z,13.10
2019-02-18T07:31:11.991Z,23.47
2019-02-18T07:33:41.010Z,13.73
2019-02-18T07:36:10.082Z,13.07
2019-02-18T07:38:39.165Z,13.33
2019-02-18T07:41:08.214Z,15.90
2019-02-18T07:43:37.243Z,13.10
2019-02-18T07:46:06.277Z,12.80
2019-02-18T07:48:36.757Z,13.83
2019-02-18T07:51:05.833Z,15.97
2019-02-18T07:53:34.815Z,11.07
2019-02-18T07:56:03.778Z,13.10
2019-02-18T07:58:32.794Z,14.97
2019-02-18T08:01:01.846Z,15.67
2019-02-18T08:03:30.863Z,14.87
2019-02-18T08:05:59.890Z,13.50
2019-02-18T08:08:28.909Z,12.73
2019-02-18T08:10:57.907Z,12.10
2019-02-18T08:13:26.972Z,15.07
2019-02-18T08:15:55.939Z,15.40
2019-02-18T08:18:24.929Z,15.03
2019-02-18T08:20:53.923Z,13.67
2019-02-18T08:23:22.894Z,14.60
2019-02-18T08:25:51.919Z,13.90
2019-02-18T08:28:20.942Z,12.20
2019-02-18T08:30:50.009Z,12.00
2019-02-18T08:33:19.026Z,14.03
2019-02-18T08:35:47.998Z,14.60
2019-02-18T08:38:16.970Z,12.60
2019-02-18T08:40:45.999Z,13.23
2019-02-18T08:43:14.974Z,12.27
2019-02-18T08:45:44.086Z,14.33
2019-02-18T08:48:13.134Z,17.03
2019-02-18T08:50:42.117Z,16.97
2019-02-18T08:53:11.141Z,14.80
2019-02-18T08:55:40.147Z,13.40
2019-02-18T08:58:09.232Z,12.93
2019-02-18T09:00:38.373Z,15.63
2019-02-18T09:03:07.423Z,14.10
2019-02-18T09:05:36.509Z,13.30
2019-02-18T09:08:05.543Z,16.40
2019-02-18T09:10:34.511Z,16.53
2019-02-18T09:13:03.526Z,13.40
2019-02-18T09:15:32.545Z,12.60
2019-02-18T09:18:01.548Z,12.27
2019-02-18T09:20:30.553Z,13.87
2019-02-18T09:23:33.927Z,12.17
2019-02-18T09:26:04.041Z,14.10
2019-02-18T09:28:33.071Z,13.73
2019-02-18T09:31:02.214Z,13.67
2019-02-18T09:33:31.285Z,13.40
2019-02-18T09:36:00.304Z,15.80
2019-02-18T09:38:29.416Z,12.83
2019-02-18T09:40:58.481Z,15.70
2019-02-18T09:43:27.528Z,13.23
2019-02-18T09:45:56.669Z,12.63
2019-02-18T09:48:25.780Z,11.70
2019-02-18T09:50:54.810Z,12.00
2019-02-18T09:53:23.824Z,13.87
2019-02-18T09:55:52.933Z,13.83
2019-02-18T09:58:22.045Z,12.70
2019-02-18T10:00:51.181Z,11.47
2019-02-18T10:03:20.239Z,15.93
2019-02-18T10:05:49.251Z,12.10
2019-02-18T10:08:18.250Z,12.13
2019-02-18T10:10:55.300Z,16.97
2019-02-18T10:13:18.080Z,15.13
2019-02-18T10:15:47.100Z,14.97
2019-02-18T10:18:16.092Z,13.40
2019-02-18T10:20:45.182Z,14.20
2019-02-18T10:23:14.191Z,9.00
2019-02-18T10:25:43.293Z,13.70
2019-02-18T10:28:12.283Z,14.47
2019-02-18T10:30:41.282Z,12.60
2019-02-18T10:33:10.297Z,15.17
2019-02-18T10:35:39.296Z,11.67
2019-02-18T10:38:08.286Z,11.53
2019-02-18T10:40:37.375Z,10.33
2019-02-18T10:43:06.414Z,9.97
2019-02-18T10:45:35.458Z,15.37
2019-02-18T10:48:04.666Z,14.17
2019-02-18T10:50:33.710Z,16.47
2019-02-18T10:53:03.068Z,10.17
2019-02-18T10:55:32.275Z,12.53
2019-02-18T10:58:01.382Z,12.23
2019-02-18T11:00:30.465Z,10.17
2019-02-18T11:03:18.669Z,15.17
2019-02-18T11:05:47.806Z,13.43
2019-02-18T11:08:16.874Z,13.73
2019-02-18T11:10:45.886Z,12.60
2019-02-18T11:13:14.884Z,13.10
2019-02-18T11:15:43.901Z,15.27
2019-02-18T11:18:12.945Z,12.80
2019-02-18T11:20:42.017Z,11.67
2019-02-18T11:23:11.074Z,17.70
2019-02-18T11:25:40.121Z,10.27
2019-02-18T11:28:09.141Z,11.50
2019-02-18T11:30:39.132Z,12.50
2019-02-18T11:33:08.271Z,11.77
2019-02-18T11:35:37.297Z,12.67
2019-02-18T11:38:06.355Z,12.30
2019-02-18T11:40:35.700Z,13.13
2019-02-18T11:43:04.692Z,11.63
2019-02-18T11:45:34.845Z,11.13
2019-02-18T11:48:04.043Z,13.43
2019-02-18T11:50:33.034Z,14.47
2019-02-18T11:53:01.997Z,14.43
2019-02-18T11:55:30.976Z,10.97
2019-02-18T11:57:59.987Z,14.73
2019-02-18T12:00:29.038Z,11.27
2019-02-18T12:03:04.027Z,12.67
2019-02-18T12:05:28.801Z,11.87
2019-02-18T12:07:57.862Z,15.33
2019-02-18T12:10:26.923Z,14.47
2019-02-18T12:12:56.077Z,14.70
2019-02-18T12:15:25.346Z,13.53
2019-02-18T12:17:54.399Z,15.50
2019-02-18T12:20:23.435Z,13.43
2019-02-18T12:22:52.466Z,11.90
2019-02-18T12:25:21.957Z,11.30
2019-02-18T12:27:51.003Z,17.10
2019-02-18T12:30:20.058Z,22.30
2019-02-18T12:32:49.157Z,23.77
2019-02-18T12:35:18.236Z,21.10
2019-02-18T12:37:54.939Z,12.47
2019-02-18T12:40:18.073Z,10.30
2019-02-18T12:42:47.102Z,16.47
2019-02-18T12:45:16.218Z,17.10
2019-02-18T12:47:45.200Z,14.47
2019-02-18T12:50:14.282Z,10.53
2019-02-18T12:52:43.350Z,23.73
2019-02-18T12:55:12.773Z,15.67
2019-02-18T12:57:41.841Z,21.63
2019-02-18T13:00:11.292Z,22.87
2019-02-18T13:02:44.222Z,16.70
2019-02-18T13:05:11.437Z,18.27
2019-02-18T13:07:40.425Z,15.07
2019-02-18T13:10:09.639Z,16.27
2019-02-18T13:12:38.712Z,20.97
2019-02-18T13:15:09.604Z,17.47
2019-02-18T13:17:38.630Z,23.93
2019-02-18T13:20:10.818Z,24.57
2019-02-18T13:22:42.295Z,20.07
2019-02-18T13:25:11.346Z,21.93
2019-02-18T13:27:40.378Z,19.30
2019-02-18T13:30:11.467Z,20.70
2019-02-18T13:32:40.542Z,19.70
2019-02-18T13:35:09.596Z,20.00
2019-02-18T13:37:42.034Z,18.27
2019-02-18T13:40:12.695Z,24.33
2019-02-18T13:42:42.760Z,20.17
2019-02-18T13:45:11.760Z,17.87
2019-02-18T13:47:40.806Z,15.93
2019-02-18T13:50:09.986Z,21.30
2019-02-18T13:52:39.051Z,17.63
2019-02-18T13:55:08.459Z,23.37
2019-02-18T13:57:37.536Z,19.83
2019-02-18T14:00:09.920Z,19.73
2019-02-18T14:02:38.956Z,20.00
2019-02-18T14:05:08.245Z,18.83
2019-02-18T14:07:37.318Z,15.47
2019-02-18T14:10:06.454Z,14.70
2019-02-18T14:12:35.890Z,18.53
2019-02-18T14:15:05.593Z,16.53
2019-02-18T14:17:34.666Z,20.67
2019-02-18T14:20:03.684Z,18.67
2019-02-18T14:22:32.715Z,15.93
2019-02-18T14:25:03.417Z,21.60
2019-02-18T14:27:32.880Z,22.70
2019-02-18T14:30:01.914Z,20.27
2019-02-18T14:32:30.927Z,16.97
2019-02-18T14:34:59.989Z,19.03
2019-02-18T14:37:29.045Z,16.17
2019-02-18T14:39:58.137Z,25.13
2019-02-18T14:42:27.474Z,25.43
2019-02-18T14:44:56.607Z,21.83
2019-02-18T14:47:25.691Z,18.90
2019-02-18T14:49:54.708Z,19.30
2019-02-18T14:52:23.894Z,13.50
2019-02-18T14:54:52.923Z,21.50
2019-02-18T14:57:22.312Z,27.63
2019-02-18T14:59:51.389Z,24.83
2019-02-18T15:02:20.430Z,23.97
2019-02-18T15:04:49.491Z,19.77
2019-02-18T15:07:18.567Z,25.73
2019-02-18T15:09:47.613Z,16.80
2019-02-18T15:12:17.087Z,19.63
2019-02-18T15:14:46.145Z,16.73
2019-02-18T15:17:15.204Z,21.17
2019-02-18T15:19:44.204Z,18.33
2019-02-18T15:22:13.238Z,21.97
2019-02-18T15:24:42.253Z,20.03
2019-02-18T15:27:11.630Z,25.03
2019-02-18T15:29:40.640Z,22.20
2019-02-18T15:32:09.650Z,22.43
2019-02-18T15:34:38.697Z,17.23
2019-02-18T15:37:07.772Z,20.90
2019-02-18T15:39:36.847Z,17.07
2019-02-18T15:42:06.181Z,13.47
2019-02-18T15:44:35.185Z,20.63
2019-02-18T15:47:04.369Z,16.33
2019-02-18T15:49:33.430Z,18.33
2019-02-18T15:52:02.446Z,16.03
2019-02-18T15:54:31.466Z,17.60
2019-02-18T15:57:00.582Z,18.10
2019-02-18T15:59:29.591Z,18.57
2019-02-18T16:01:58.720Z,18.77
2019-02-18T16:04:27.859Z,15.60
2019-02-18T16:06:56.935Z,17.13
2019-02-18T16:09:25.940Z,13.13
2019-02-18T16:11:54.973Z,13.40
2019-02-18T16:14:24.019Z,14.80
2019-02-18T16:16:53.038Z,19.53
2019-02-18T16:19:22.031Z,16.83
2019-02-18T16:21:51.234Z,13.97
2019-02-18T16:24:20.416Z,21.73
2019-02-18T16:26:49.433Z,16.77
2019-02-18T16:29:18.713Z,17.00
2019-02-18T16:31:47.749Z,12.60
2019-02-18T16:34:16.917Z,16.53
2019-02-18T16:36:45.954Z,14.20
2019-02-18T16:39:15.108Z,23.07
2019-02-18T16:41:44.150Z,17.00
2019-02-18T16:44:13.140Z,19.60
2019-02-18T16:46:42.125Z,15.10
2019-02-18T16:49:11.339Z,16.47
2019-02-18T16:51:40.393Z,14.07
2019-02-18T16:54:09.482Z,15.97
2019-02-18T16:56:38.598Z,21.37
2019-02-18T16:59:07.650Z,23.37
2019-02-18T17:01:36.702Z,17.30
2019-02-18T17:04:05.742Z,19.03
2019-02-18T17:06:34.812Z,17.03
2019-02-18T17:09:05.421Z,18.50
2019-02-18T17:11:34.508Z,17.83
2019-02-18T17:14:03.618Z,20.23
2019-02-18T17:16:32.671Z,24.00
2019-02-18T17:19:01.652Z,20.67
2019-02-18T17:21:30.716Z,17.70
2019-02-18T17:23:59.750Z,22.63
2019-02-18T17:26:28.775Z,17.67
2019-02-18T17:28:57.973Z,15.40
2019-02-18T17:31:27.078Z,19.60
2019-02-18T17:33:56.107Z,16.77
2019-02-18T17:36:36.268Z,20.67
2019-02-18T17:39:05.531Z,18.03
2019-02-18T17:41:35.073Z,13.60
2019-02-18T17:44:04.119Z,14.97
2019-02-18T17:46:33.150Z,15.07
2019-02-18T17:49:02.226Z,17.10
2019-02-18T17:51:39.629Z,16.23
2019-02-18T17:54:12.013Z,20.67
2019-02-18T17:56:41.079Z,20.80
2019-02-18T17:59:10.124Z,18.80
2019-02-18T18:01:39.157Z,21.57
2019-02-18T18:04:08.229Z,17.23
2019-02-18T18:06:37.279Z,16.90
2019-02-18T18:09:07.579Z,16.17
2019-02-18T18:11:36.873Z,19.80
2019-02-18T18:14:06.014Z,18.97
2019-02-18T18:16:35.089Z,18.87
2019-02-18T18:19:09.379Z,20.13
2019-02-18T18:21:36.132Z,16.80
2019-02-18T18:24:05.396Z,19.03
2019-02-18T18:26:34.411Z,16.80
2019-02-18T18:29:03.417Z,19.43
2019-02-18T18:31:32.500Z,22.00
2019-02-18T18:34:01.568Z,20.43
2019-02-18T18:36:30.635Z,15.97
2019-02-18T18:38:59.831Z,16.60
2019-02-18T18:41:28.848Z,18.93
2019-02-18T18:43:57.888Z,20.10
2019-02-18T18:46:26.897Z,20.87
2019-02-18T18:48:55.858Z,21.13
2019-02-18T18:51:25.011Z,19.20
2019-02-18T18:53:54.345Z,19.73
2019-02-18T18:56:23.532Z,20.37
2019-02-18T18:58:52.633Z,16.80
2019-02-18T19:01:21.677Z,20.60
2019-02-18T19:03:50.714Z,22.47
2019-02-18T19:06:19.723Z,21.47
2019-02-18T19:08:49.029Z,18.00
2019-02-18T19:11:18.047Z,21.30
2019-02-18T19:13:47.051Z,17.57
2019-02-18T19:16:16.100Z,17.83
2019-02-18T19:18:45.266Z,24.40
2019-02-18T19:21:14.403Z,20.83
2019-02-18T19:23:43.437Z,22.43
2019-02-18T19:26:12.666Z,20.27
2019-02-18T19:28:41.729Z,15.73
2019-02-18T19:31:10.837Z,16.43
2019-02-18T19:33:39.914Z,19.13
2019-02-18T19:36:09.079Z,17.73
2019-02-18T19:38:38.121Z,19.77
2019-02-18T19:41:07.277Z,20.43
2019-02-18T19:43:36.293Z,19.43
2019-02-18T19:46:05.338Z,20.27
2019-02-18T19:48:34.381Z,19.60
2019-02-18T19:51:03.401Z,16.97
2019-02-18T19:53:32.449Z,18.27
2019-02-18T19:56:01.515Z,18.30
2019-02-18T19:58:30.598Z,21.43
2019-02-18T20:00:59.639Z,20.63
2019-02-18T20:03:28.750Z,19.93
2019-02-18T20:05:58.039Z,21.10
2019-02-18T20:08:27.249Z,19.30
2019-02-18T20:10:56.428Z,18.43
2019-02-18T20:13:25.646Z,21.13
2019-02-18T20:15:54.822Z,21.87
2019-02-18T20:18:23.848Z,20.80
2019-02-18T20:20:53.345Z,19.53
2019-02-18T20:23:22.365Z,20.37
2019-02-18T20:25:51.536Z,17.63
2019-02-18T20:28:20.857Z,21.20
2019-02-18T20:30:49.994Z,21.20
2019-02-18T20:33:19.158Z,22.07
2019-02-18T20:35:48.739Z,22.87
2019-02-18T20:38:17.957Z,21.13
2019-02-18T20:40:47.091Z,20.03
2019-02-18T20:43:20.329Z,27.90
2019-02-18T20:45:49.532Z,23.03
2019-02-18T20:48:25.119Z,21.37
2019-02-18T20:50:54.337Z,24.77
2019-02-18T20:53:24.686Z,21.20
2019-02-18T20:55:53.725Z,23.97
2019-02-18T20:58:22.754Z,23.13
2019-02-18T21:00:51.821Z,23.13
2019-02-18T21:03:20.898Z,17.70
2019-02-18T21:05:50.168Z,24.13
2019-02-18T21:08:19.209Z,21.50
2019-02-18T21:10:48.262Z,20.93
2019-02-18T21:13:17.320Z,21.23
2019-02-18T21:15:46.363Z,24.40
2019-02-18T21:18:16.218Z,24.87
2019-02-18T21:20:45.312Z,21.67
2019-02-18T21:23:14.475Z,20.17
2019-02-18T21:25:43.985Z,25.93
2019-02-18T21:28:13.236Z,25.40
2019-02-18T21:30:42.365Z,24.37
2019-02-18T21:33:11.662Z,23.90
2019-02-18T21:35:40.735Z,23.43
2019-02-18T21:38:09.782Z,25.43
2019-02-18T21:40:38.878Z,26.47
2019-02-18T21:43:07.917Z,27.43
2019-02-18T21:45:38.815Z,24.93
2019-02-18T21:48:09.013Z,25.47
2019-02-18T21:50:38.302Z,29.70
2019-02-18T21:53:07.319Z,26.17
2019-02-18T21:55:36.343Z,29.40
2019-02-18T21:58:05.427Z,28.60
2019-02-18T22:00:34.417Z,30.43
2019-02-18T22:03:03.538Z,28.83
2019-02-18T22:05:32.694Z,26.80
2019-02-18T22:08:01.770Z,25.77
2019-02-18T22:10:30.845Z,26.07
2019-02-18T22:12:59.953Z,27.87
2019-02-18T22:15:29.009Z,31.07
2019-02-18T22:17:58.227Z,20.93
2019-02-18T22:20:27.277Z,21.20
2019-02-18T22:22:56.368Z,18.80
2019-02-18T22:25:25.402Z,23.87
2019-02-18T22:27:54.458Z,20.77
2019-02-18T22:30:23.487Z,14.67
2019-02-18T22:32:52.517Z,15.83
2019-02-18T22:35:33.190Z,17.87
2019-02-18T22:38:03.915Z,16.00
2019-02-18T22:40:33.051Z,13.77
2019-02-18T22:43:02.091Z,16.27
2019-02-18T22:45:31.116Z,14.87
2019-02-18T22:48:02.576Z,14.03
2019-02-18T22:50:31.642Z,10.73
2019-02-18T22:53:00.711Z,10.33
2019-02-18T22:55:29.744Z,11.63
2019-02-18T22:57:58.770Z,11.97
2019-02-18T23:00:51.879Z,11.00
2019-02-18T23:03:21.719Z,10.17
2019-02-18T23:06:03.098Z,12.03
2019-02-18T23:08:32.165Z,7.83
2019-02-18T23:11:01.539Z,9.40
2019-02-18T23:13:30.637Z,9.73
2019-02-18T23:15:59.607Z,9.97
2019-02-18T23:18:28.710Z,10.03
2019-02-18T23:20:57.742Z,8.43
2019-02-18T23:23:26.878Z,12.73
2019-02-18T23:25:55.885Z,9.63
2019-02-18T23:28:24.902Z,7.53
2019-02-18T23:30:53.966Z,7.97
2019-02-18T23:33:23.021Z,9.93
2019-02-18T23:35:51.989Z,10.70
2019-02-18T23:38:20.996Z,10.43
2019-02-18T23:40:50.039Z,8.70
2019-02-18T23:43:20.033Z,10.63
2019-02-18T23:45:49.113Z,8.70
2019-02-18T23:48:18.154Z,8.67
2019-02-18T23:50:47.206Z,10.50
2019-02-18T23:53:16.273Z,7.03
2019-02-18T23:55:45.397Z,8.13
2019-02-18T23:58:14.462Z,6.43
